sensor_id;sensor_type;location;lat;lon;timestamp;P1;durP1;ratioP1;P2;durP2;ratioP2
33347;SDS011;19707;51.158;17.124;2022-08-11T00:02:16;7.75;;;5.95;;
33347;SDS011;19707;51.158;17.124;2022-08-11T00:05:32;10.80;;;6.30;;
33347;SDS011;19707;51.158;17.124;2022-08-11T00:11:51;10.60;;;5.97;;
33347;SDS011;19707;51.158;17.124;2022-08-11T00:17:59;8.58;;;6.03;;
33347;SDS011;19707;51.158;17.124;2022-08-11T00:21:01;9.68;;;6.15;;
33347;SDS011;19707;51.158;17.124;2022-08-11T00:24:03;7.47;;;5.17;;
33347;SDS011;19707;51.158;17.124;2022-08-11T00:27:05;7.85;;;5.60;;
33347;SDS011;19707;51.158;17.124;2022-08-11T00:30:08;8.63;;;5.65;;
33347;SDS011;19707;51.158;17.124;2022-08-11T00:33:11;7.67;;;5.05;;
33347;SDS011;19707;51.158;17.124;2022-08-11T00:36:16;8.20;;;5.53;;
33347;SDS011;19707;51.158;17.124;2022-08-11T00:39:20;7.10;;;6.00;;
33347;SDS011;19707;51.158;17.124;2022-08-11T00:42:39;7.85;;;5.00;;
33347;SDS011;19707;51.158;17.124;2022-08-11T00:46:17;7.17;;;5.33;;
33347;SDS011;19707;51.158;17.124;2022-08-11T01:00:21;11.95;;;5.80;;
33347;SDS011;19707;51.158;17.124;2022-08-11T01:03:31;10.13;;;5.05;;
33347;SDS011;19707;51.158;17.124;2022-08-11T01:14:09;8.90;;;5.65;;
33347;SDS011;19707;51.158;17.124;2022-08-11T01:25:18;8.15;;;5.33;;
33347;SDS011;19707;51.158;17.124;2022-08-11T01:32:31;6.53;;;4.80;;
33347;SDS011;19707;51.158;17.124;2022-08-11T01:57:36;6.80;;;4.65;;
33347;SDS011;19707;51.158;17.124;2022-08-11T02:00:47;5.25;;;4.70;;
33347;SDS011;19707;51.158;17.124;2022-08-11T02:07:44;8.00;;;4.45;;
33347;SDS011;19707;51.158;17.124;2022-08-11T02:11:17;6.28;;;5.17;;
33347;SDS011;19707;51.158;17.124;2022-08-11T02:14:36;9.90;;;4.53;;
33347;SDS011;19707;51.158;17.124;2022-08-11T02:21:09;6.70;;;4.75;;
33347;SDS011;19707;51.158;17.124;2022-08-11T02:24:39;5.95;;;4.60;;
33347;SDS011;19707;51.158;17.124;2022-08-11T02:27:47;7.50;;;4.37;;
33347;SDS011;19707;51.158;17.124;2022-08-11T02:31:05;5.03;;;4.53;;
33347;SDS011;19707;51.158;17.124;2022-08-11T02:35:11;7.20;;;3.90;;
33347;SDS011;19707;51.158;17.124;2022-08-11T02:56:18;6.08;;;4.25;;
33347;SDS011;19707;51.158;17.124;2022-08-11T02:59:52;6.25;;;4.60;;
33347;SDS011;19707;51.158;17.124;2022-08-11T03:03:18;5.25;;;4.37;;
33347;SDS011;19707;51.158;17.124;2022-08-11T03:06:34;4.55;;;4.15;;
33347;SDS011;19707;51.158;17.124;2022-08-11T03:09:52;6.15;;;4.78;;
33347;SDS011;19707;51.158;17.124;2022-08-11T03:13:03;5.45;;;4.35;;
33347;SDS011;19707;51.158;17.124;2022-08-11T03:16:50;4.80;;;4.25;;
33347;SDS011;19707;51.158;17.124;2022-08-11T03:23:40;9.35;;;4.97;;
33347;SDS011;19707;51.158;17.124;2022-08-11T03:34:23;7.20;;;4.22;;
33347;SDS011;19707;51.158;17.124;2022-08-11T03:41:18;9.85;;;4.35;;
33347;SDS011;19707;51.158;17.124;2022-08-11T03:44:33;5.53;;;4.42;;
33347;SDS011;19707;51.158;17.124;2022-08-11T03:48:03;6.60;;;4.33;;
33347;SDS011;19707;51.158;17.124;2022-08-11T03:51:32;8.05;;;4.85;;
33347;SDS011;19707;51.158;17.124;2022-08-11T04:17:00;8.68;;;4.10;;
33347;SDS011;19707;51.158;17.124;2022-08-11T04:20:17;8.78;;;4.85;;
33347;SDS011;19707;51.158;17.124;2022-08-11T04:26:32;15.83;;;5.12;;
33347;SDS011;19707;51.158;17.124;2022-08-11T04:37:09;10.72;;;5.45;;
33347;SDS011;19707;51.158;17.124;2022-08-11T04:40:42;9.38;;;5.33;;
33347;SDS011;19707;51.158;17.124;2022-08-11T04:52:01;11.80;;;5.15;;
33347;SDS011;19707;51.158;17.124;2022-08-11T05:13:49;7.00;;;5.05;;
33347;SDS011;19707;51.158;17.124;2022-08-11T05:20:57;12.25;;;5.15;;
33347;SDS011;19707;51.158;17.124;2022-08-11T05:24:23;5.58;;;4.10;;
33347;SDS011;19707;51.158;17.124;2022-08-11T05:28:07;6.45;;;4.12;;
33347;SDS011;19707;51.158;17.124;2022-08-11T05:31:33;8.03;;;4.53;;
33347;SDS011;19707;51.158;17.124;2022-08-11T05:34:55;7.25;;;4.62;;
33347;SDS011;19707;51.158;17.124;2022-08-11T05:37:58;8.05;;;5.05;;
33347;SDS011;19707;51.158;17.124;2022-08-11T05:41:18;7.00;;;4.62;;
33347;SDS011;19707;51.158;17.124;2022-08-11T05:44:43;6.90;;;4.80;;
33347;SDS011;19707;51.158;17.124;2022-08-11T05:48:04;4.22;;;3.83;;
33347;SDS011;19707;51.158;17.124;2022-08-11T05:51:31;5.05;;;3.92;;
33347;SDS011;19707;51.158;17.124;2022-08-11T05:54:59;6.28;;;3.50;;
33347;SDS011;19707;51.158;17.124;2022-08-11T05:58:23;4.70;;;3.52;;
33347;SDS011;19707;51.158;17.124;2022-08-11T06:01:29;7.37;;;3.50;;
33347;SDS011;19707;51.158;17.124;2022-08-11T06:04:31;9.50;;;4.22;;
33347;SDS011;19707;51.158;17.124;2022-08-11T06:07:33;6.28;;;3.58;;
33347;SDS011;19707;51.158;17.124;2022-08-11T06:10:36;10.43;;;4.33;;
33347;SDS011;19707;51.158;17.124;2022-08-11T06:13:43;8.48;;;4.22;;
33347;SDS011;19707;51.158;17.124;2022-08-11T06:16:48;5.42;;;3.50;;
33347;SDS011;19707;51.158;17.124;2022-08-11T06:19:57;8.68;;;4.85;;
33347;SDS011;19707;51.158;17.124;2022-08-11T06:23:11;7.30;;;2.98;;
33347;SDS011;19707;51.158;17.124;2022-08-11T06:26:14;7.12;;;3.92;;
33347;SDS011;19707;51.158;17.124;2022-08-11T06:29:16;9.75;;;4.08;;
33347;SDS011;19707;51.158;17.124;2022-08-11T06:32:18;9.00;;;3.58;;
33347;SDS011;19707;51.158;17.124;2022-08-11T06:43:01;9.43;;;3.30;;
33347;SDS011;19707;51.158;17.124;2022-08-11T06:49:09;7.37;;;3.05;;
33347;SDS011;19707;51.158;17.124;2022-08-11T06:52:35;6.00;;;3.27;;
33347;SDS011;19707;51.158;17.124;2022-08-11T06:55:38;10.28;;;3.45;;
33347;SDS011;19707;51.158;17.124;2022-08-11T06:59:01;5.78;;;3.10;;
33347;SDS011;19707;51.158;17.124;2022-08-11T07:02:22;9.80;;;2.87;;
33347;SDS011;19707;51.158;17.124;2022-08-11T07:05:39;5.00;;;3.25;;
33347;SDS011;19707;51.158;17.124;2022-08-11T07:12:44;5.60;;;2.90;;
33347;SDS011;19707;51.158;17.124;2022-08-11T07:16:07;6.17;;;3.33;;
33347;SDS011;19707;51.158;17.124;2022-08-11T07:19:11;6.28;;;2.70;;
33347;SDS011;19707;51.158;17.124;2022-08-11T07:22:35;9.48;;;3.15;;
33347;SDS011;19707;51.158;17.124;2022-08-11T07:25:51;6.97;;;3.55;;
33347;SDS011;19707;51.158;17.124;2022-08-11T07:29:16;3.45;;;2.47;;
33347;SDS011;19707;51.158;17.124;2022-08-11T07:32:24;7.15;;;2.62;;
33347;SDS011;19707;51.158;17.124;2022-08-11T07:35:33;2.70;;;2.45;;
33347;SDS011;19707;51.158;17.124;2022-08-11T07:38:44;3.25;;;2.37;;
33347;SDS011;19707;51.158;17.124;2022-08-11T07:41:51;6.10;;;2.80;;
33347;SDS011;19707;51.158;17.124;2022-08-11T07:44:56;4.28;;;2.65;;
33347;SDS011;19707;51.158;17.124;2022-08-11T07:48:17;3.70;;;2.90;;
33347;SDS011;19707;51.158;17.124;2022-08-11T07:51:38;3.37;;;2.72;;
33347;SDS011;19707;51.158;17.124;2022-08-11T07:55:03;5.67;;;2.50;;
33347;SDS011;19707;51.158;17.124;2022-08-11T07:58:07;2.77;;;2.50;;
33347;SDS011;19707;51.158;17.124;2022-08-11T08:01:29;5.37;;;2.58;;
33347;SDS011;19707;51.158;17.124;2022-08-11T08:04:49;3.27;;;2.10;;
33347;SDS011;19707;51.158;17.124;2022-08-11T08:08:10;4.95;;;3.20;;
33347;SDS011;19707;51.158;17.124;2022-08-11T08:11:33;4.33;;;2.50;;
33347;SDS011;19707;51.158;17.124;2022-08-11T08:14:53;4.08;;;2.70;;
33347;SDS011;19707;51.158;17.124;2022-08-11T08:18:14;2.92;;;2.47;;
33347;SDS011;19707;51.158;17.124;2022-08-11T08:21:15;5.65;;;2.40;;
33347;SDS011;19707;51.158;17.124;2022-08-11T08:24:17;4.47;;;2.40;;
33347;SDS011;19707;51.158;17.124;2022-08-11T08:27:19;4.75;;;2.55;;
33347;SDS011;19707;51.158;17.124;2022-08-11T08:30:22;2.02;;;1.92;;
33347;SDS011;19707;51.158;17.124;2022-08-11T08:33:44;2.47;;;1.95;;
33347;SDS011;19707;51.158;17.124;2022-08-11T08:36:46;5.47;;;2.50;;
33347;SDS011;19707;51.158;17.124;2022-08-11T08:42:55;3.35;;;1.80;;
33347;SDS011;19707;51.158;17.124;2022-08-11T08:45:59;5.92;;;1.85;;
33347;SDS011;19707;51.158;17.124;2022-08-11T08:49:01;4.37;;;2.10;;
33347;SDS011;19707;51.158;17.124;2022-08-11T08:52:04;3.30;;;2.00;;
33347;SDS011;19707;51.158;17.124;2022-08-11T08:55:06;4.42;;;1.90;;
33347;SDS011;19707;51.158;17.124;2022-08-11T08:58:13;3.37;;;2.00;;
33347;SDS011;19707;51.158;17.124;2022-08-11T09:01:16;3.42;;;2.00;;
33347;SDS011;19707;51.158;17.124;2022-08-11T09:04:19;2.90;;;2.00;;
33347;SDS011;19707;51.158;17.124;2022-08-11T09:07:22;4.30;;;1.90;;
33347;SDS011;19707;51.158;17.124;2022-08-11T09:10:26;2.70;;;2.10;;
33347;SDS011;19707;51.158;17.124;2022-08-11T09:13:29;1.98;;;1.82;;
33347;SDS011;19707;51.158;17.124;2022-08-11T09:16:36;4.08;;;2.02;;
33347;SDS011;19707;51.158;17.124;2022-08-11T09:19:38;5.60;;;2.10;;
33347;SDS011;19707;51.158;17.124;2022-08-11T09:22:41;3.62;;;2.10;;
33347;SDS011;19707;51.158;17.124;2022-08-11T09:26:02;2.30;;;2.10;;
33347;SDS011;19707;51.158;17.124;2022-08-11T09:29:22;3.37;;;1.95;;
33347;SDS011;19707;51.158;17.124;2022-08-11T09:32:24;4.67;;;1.60;;
33347;SDS011;19707;51.158;17.124;2022-08-11T09:35:28;3.22;;;1.80;;
33347;SDS011;19707;51.158;17.124;2022-08-11T09:38:34;4.83;;;1.90;;
33347;SDS011;19707;51.158;17.124;2022-08-11T09:41:55;3.45;;;1.55;;
33347;SDS011;19707;51.158;17.124;2022-08-11T09:44:56;1.72;;;1.62;;
33347;SDS011;19707;51.158;17.124;2022-08-11T09:47:58;4.60;;;1.80;;
33347;SDS011;19707;51.158;17.124;2022-08-11T09:51:01;2.17;;;1.70;;
33347;SDS011;19707;51.158;17.124;2022-08-11T09:54:03;3.33;;;1.55;;
33347;SDS011;19707;51.158;17.124;2022-08-11T09:57:06;4.30;;;1.65;;
33347;SDS011;19707;51.158;17.124;2022-08-11T10:00:29;3.30;;;1.40;;
33347;SDS011;19707;51.158;17.124;2022-08-11T10:03:35;2.47;;;1.52;;
33347;SDS011;19707;51.158;17.124;2022-08-11T10:06:38;5.33;;;1.50;;
33347;SDS011;19707;51.158;17.124;2022-08-11T10:10:00;4.12;;;1.60;;
33347;SDS011;19707;51.158;17.124;2022-08-11T10:13:08;4.08;;;1.80;;
33347;SDS011;19707;51.158;17.124;2022-08-11T10:16:10;6.17;;;1.55;;
33347;SDS011;19707;51.158;17.124;2022-08-11T10:19:12;3.05;;;1.60;;
33347;SDS011;19707;51.158;17.124;2022-08-11T10:22:18;2.47;;;1.70;;
33347;SDS011;19707;51.158;17.124;2022-08-11T10:25:38;4.37;;;1.62;;
33347;SDS011;19707;51.158;17.124;2022-08-11T10:28:59;2.33;;;1.50;;
33347;SDS011;19707;51.158;17.124;2022-08-11T10:32:01;2.40;;;1.30;;
33347;SDS011;19707;51.158;17.124;2022-08-11T10:35:23;3.45;;;1.50;;
33347;SDS011;19707;51.158;17.124;2022-08-11T10:38:26;2.58;;;1.47;;
33347;SDS011;19707;51.158;17.124;2022-08-11T10:41:28;1.50;;;1.40;;
33347;SDS011;19707;51.158;17.124;2022-08-11T10:44:52;3.87;;;1.42;;
33347;SDS011;19707;51.158;17.124;2022-08-11T10:47:56;2.33;;;1.30;;
33347;SDS011;19707;51.158;17.124;2022-08-11T10:50:58;7.20;;;1.47;;
33347;SDS011;19707;51.158;17.124;2022-08-11T10:54:17;3.47;;;1.40;;
33347;SDS011;19707;51.158;17.124;2022-08-11T10:57:38;3.72;;;1.12;;
33347;SDS011;19707;51.158;17.124;2022-08-11T11:00:58;2.08;;;1.32;;
33347;SDS011;19707;51.158;17.124;2022-08-11T11:04:01;1.42;;;1.20;;
33347;SDS011;19707;51.158;17.124;2022-08-11T11:10:22;5.67;;;1.60;;
33347;SDS011;19707;51.158;17.124;2022-08-11T11:13:24;2.62;;;1.60;;
33347;SDS011;19707;51.158;17.124;2022-08-11T11:16:44;3.72;;;1.82;;
33347;SDS011;19707;51.158;17.124;2022-08-11T11:20:04;4.37;;;1.40;;
33347;SDS011;19707;51.158;17.124;2022-08-11T11:26:40;3.27;;;1.62;;
33347;SDS011;19707;51.158;17.124;2022-08-11T11:30:05;1.87;;;1.40;;
33347;SDS011;19707;51.158;17.124;2022-08-11T11:33:15;2.55;;;1.62;;
33347;SDS011;19707;51.158;17.124;2022-08-11T11:36:47;1.55;;;1.40;;
33347;SDS011;19707;51.158;17.124;2022-08-11T11:39:57;2.45;;;1.60;;
33347;SDS011;19707;51.158;17.124;2022-08-11T11:42:59;4.10;;;1.52;;
33347;SDS011;19707;51.158;17.124;2022-08-11T11:46:01;2.90;;;1.80;;
33347;SDS011;19707;51.158;17.124;2022-08-11T11:49:04;1.67;;;1.57;;
33347;SDS011;19707;51.158;17.124;2022-08-11T11:52:13;1.55;;;1.42;;
33347;SDS011;19707;51.158;17.124;2022-08-11T11:55:18;3.02;;;2.00;;
33347;SDS011;19707;51.158;17.124;2022-08-11T11:58:21;2.90;;;1.30;;
33347;SDS011;19707;51.158;17.124;2022-08-11T12:01:42;2.20;;;1.30;;
33347;SDS011;19707;51.158;17.124;2022-08-11T12:04:44;12.35;;;2.27;;
33347;SDS011;19707;51.158;17.124;2022-08-11T12:07:48;2.47;;;1.73;;
33347;SDS011;19707;51.158;17.124;2022-08-11T12:11:10;2.72;;;1.55;;
33347;SDS011;19707;51.158;17.124;2022-08-11T12:14:30;2.08;;;1.45;;
33347;SDS011;19707;51.158;17.124;2022-08-11T12:17:33;4.45;;;1.52;;
33347;SDS011;19707;51.158;17.124;2022-08-11T12:20:35;6.65;;;1.40;;
33347;SDS011;19707;51.158;17.124;2022-08-11T12:23:39;7.50;;;1.87;;
33347;SDS011;19707;51.158;17.124;2022-08-11T12:27:02;1.47;;;1.30;;
33347;SDS011;19707;51.158;17.124;2022-08-11T12:30:23;1.80;;;1.50;;
33347;SDS011;19707;51.158;17.124;2022-08-11T12:33:25;3.15;;;1.50;;
33347;SDS011;19707;51.158;17.124;2022-08-11T12:36:27;3.12;;;1.65;;
33347;SDS011;19707;51.158;17.124;2022-08-11T12:39:34;1.95;;;1.47;;
33347;SDS011;19707;51.158;17.124;2022-08-11T12:46:24;4.78;;;1.37;;
33347;SDS011;19707;51.158;17.124;2022-08-11T12:49:37;1.57;;;1.40;;
33347;SDS011;19707;51.158;17.124;2022-08-11T12:53:02;2.10;;;1.30;;
33347;SDS011;19707;51.158;17.124;2022-08-11T12:59:26;1.92;;;1.32;;
33347;SDS011;19707;51.158;17.124;2022-08-11T13:02:47;1.62;;;1.10;;
33347;SDS011;19707;51.158;17.124;2022-08-11T13:06:08;1.67;;;1.57;;
33347;SDS011;19707;51.158;17.124;2022-08-11T13:09:13;2.45;;;1.20;;
33347;SDS011;19707;51.158;17.124;2022-08-11T13:12:14;1.60;;;1.25;;
33347;SDS011;19707;51.158;17.124;2022-08-11T13:15:34;1.77;;;1.45;;
33347;SDS011;19707;51.158;17.124;2022-08-11T13:18:36;3.95;;;1.55;;
33347;SDS011;19707;51.158;17.124;2022-08-11T13:21:38;2.47;;;1.60;;
33347;SDS011;19707;51.158;17.124;2022-08-11T13:24:39;2.15;;;1.32;;
33347;SDS011;19707;51.158;17.124;2022-08-11T13:27:41;2.98;;;1.40;;
33347;SDS011;19707;51.158;17.124;2022-08-11T13:30:45;1.80;;;1.10;;
33347;SDS011;19707;51.158;17.124;2022-08-11T13:34:08;2.67;;;1.20;;
33347;SDS011;19707;51.158;17.124;2022-08-11T13:37:10;3.02;;;1.30;;
33347;SDS011;19707;51.158;17.124;2022-08-11T13:40:14;1.60;;;1.37;;
33347;SDS011;19707;51.158;17.124;2022-08-11T13:43:18;2.55;;;1.50;;
33347;SDS011;19707;51.158;17.124;2022-08-11T13:46:22;5.67;;;1.40;;
33347;SDS011;19707;51.158;17.124;2022-08-11T13:49:24;3.08;;;1.20;;
33347;SDS011;19707;51.158;17.124;2022-08-11T13:52:26;1.57;;;1.00;;
33347;SDS011;19707;51.158;17.124;2022-08-11T13:55:28;1.35;;;1.15;;
33347;SDS011;19707;51.158;17.124;2022-08-11T14:01:36;1.40;;;1.30;;
33347;SDS011;19707;51.158;17.124;2022-08-11T14:04:40;1.40;;;1.20;;
33347;SDS011;19707;51.158;17.124;2022-08-11T14:08:15;1.40;;;1.30;;
33347;SDS011;19707;51.158;17.124;2022-08-11T14:11:23;1.30;;;1.17;;
33347;SDS011;19707;51.158;17.124;2022-08-11T14:14:51;2.15;;;1.20;;
33347;SDS011;19707;51.158;17.124;2022-08-11T14:17:55;3.95;;;1.60;;
33347;SDS011;19707;51.158;17.124;2022-08-11T14:21:09;1.92;;;1.37;;
33347;SDS011;19707;51.158;17.124;2022-08-11T14:24:41;3.90;;;1.40;;
33347;SDS011;19707;51.158;17.124;2022-08-11T14:27:42;1.70;;;1.25;;
33347;SDS011;19707;51.158;17.124;2022-08-11T14:30:44;2.50;;;1.40;;
33347;SDS011;19707;51.158;17.124;2022-08-11T14:33:55;2.37;;;1.20;;
33347;SDS011;19707;51.158;17.124;2022-08-11T14:37:03;1.50;;;1.15;;
33347;SDS011;19707;51.158;17.124;2022-08-11T14:40:13;3.60;;;1.35;;
33347;SDS011;19707;51.158;17.124;2022-08-11T14:43:16;1.80;;;1.40;;
33347;SDS011;19707;51.158;17.124;2022-08-11T14:46:36;1.42;;;1.30;;
33347;SDS011;19707;51.158;17.124;2022-08-11T14:49:58;1.75;;;1.25;;
33347;SDS011;19707;51.158;17.124;2022-08-11T14:53:03;3.23;;;1.30;;
33347;SDS011;19707;51.158;17.124;2022-08-11T14:56:09;3.65;;;1.52;;
33347;SDS011;19707;51.158;17.124;2022-08-11T14:59:29;3.20;;;1.35;;
33347;SDS011;19707;51.158;17.124;2022-08-11T15:02:30;1.77;;;1.40;;
33347;SDS011;19707;51.158;17.124;2022-08-11T15:05:52;5.42;;;1.45;;
33347;SDS011;19707;51.158;17.124;2022-08-11T15:08:56;2.15;;;1.52;;
33347;SDS011;19707;51.158;17.124;2022-08-11T15:11:57;4.58;;;1.60;;
33347;SDS011;19707;51.158;17.124;2022-08-11T15:15:08;1.40;;;1.30;;
33347;SDS011;19707;51.158;17.124;2022-08-11T15:18:29;4.92;;;1.40;;
33347;SDS011;19707;51.158;17.124;2022-08-11T15:21:31;3.75;;;1.72;;
33347;SDS011;19707;51.158;17.124;2022-08-11T15:24:50;2.55;;;1.55;;
33347;SDS011;19707;51.158;17.124;2022-08-11T15:27:51;5.40;;;1.65;;
33347;SDS011;19707;51.158;17.124;2022-08-11T15:31:13;3.62;;;1.98;;
33347;SDS011;19707;51.158;17.124;2022-08-11T15:34:34;4.75;;;1.17;;
33347;SDS011;19707;51.158;17.124;2022-08-11T15:37:51;2.05;;;1.62;;
33347;SDS011;19707;51.158;17.124;2022-08-11T15:40:55;4.12;;;1.60;;
33347;SDS011;19707;51.158;17.124;2022-08-11T15:44:16;1.65;;;1.30;;
33347;SDS011;19707;51.158;17.124;2022-08-11T15:47:40;2.35;;;1.60;;
33347;SDS011;19707;51.158;17.124;2022-08-11T15:50:45;2.35;;;1.30;;
33347;SDS011;19707;51.158;17.124;2022-08-11T15:53:51;2.05;;;1.10;;
33347;SDS011;19707;51.158;17.124;2022-08-11T15:56:56;5.80;;;1.42;;
33347;SDS011;19707;51.158;17.124;2022-08-11T16:00:04;2.33;;;1.40;;
33347;SDS011;19707;51.158;17.124;2022-08-11T16:03:25;2.67;;;1.40;;
33347;SDS011;19707;51.158;17.124;2022-08-11T16:06:38;3.47;;;1.22;;
33347;SDS011;19707;51.158;17.124;2022-08-11T16:09:52;1.50;;;1.15;;
33347;SDS011;19707;51.158;17.124;2022-08-11T16:13:02;2.00;;;1.50;;
33347;SDS011;19707;51.158;17.124;2022-08-11T16:16:06;4.80;;;2.00;;
33347;SDS011;19707;51.158;17.124;2022-08-11T16:19:15;6.20;;;1.62;;
33347;SDS011;19707;51.158;17.124;2022-08-11T16:22:20;1.70;;;1.57;;
33347;SDS011;19707;51.158;17.124;2022-08-11T16:25:32;1.65;;;1.37;;
33347;SDS011;19707;51.158;17.124;2022-08-11T16:28:34;4.28;;;1.50;;
33347;SDS011;19707;51.158;17.124;2022-08-11T16:31:37;3.50;;;1.50;;
33347;SDS011;19707;51.158;17.124;2022-08-11T16:34:41;2.40;;;1.57;;
33347;SDS011;19707;51.158;17.124;2022-08-11T16:38:15;2.12;;;1.42;;
33347;SDS011;19707;51.158;17.124;2022-08-11T16:41:20;1.82;;;1.30;;
33347;SDS011;19707;51.158;17.124;2022-08-11T16:44:42;4.55;;;1.37;;
33347;SDS011;19707;51.158;17.124;2022-08-11T16:48:02;2.35;;;1.47;;
33347;SDS011;19707;51.158;17.124;2022-08-11T16:54:11;3.08;;;1.00;;
33347;SDS011;19707;51.158;17.124;2022-08-11T16:57:31;3.22;;;1.30;;
33347;SDS011;19707;51.158;17.124;2022-08-11T17:00:44;1.77;;;1.22;;
33347;SDS011;19707;51.158;17.124;2022-08-11T17:03:57;5.78;;;1.37;;
33347;SDS011;19707;51.158;17.124;2022-08-11T17:07:21;8.95;;;1.57;;
33347;SDS011;19707;51.158;17.124;2022-08-11T17:10:44;8.75;;;1.47;;
33347;SDS011;19707;51.158;17.124;2022-08-11T17:14:11;3.25;;;1.70;;
33347;SDS011;19707;51.158;17.124;2022-08-11T17:17:23;5.15;;;1.52;;
33347;SDS011;19707;51.158;17.124;2022-08-11T17:20:32;8.68;;;1.12;;
33347;SDS011;19707;51.158;17.124;2022-08-11T17:23:34;2.12;;;1.07;;
33347;SDS011;19707;51.158;17.124;2022-08-11T17:26:52;2.15;;;1.20;;
33347;SDS011;19707;51.158;17.124;2022-08-11T17:29:59;2.65;;;1.30;;
33347;SDS011;19707;51.158;17.124;2022-08-11T17:33:04;2.92;;;1.80;;
33347;SDS011;19707;51.158;17.124;2022-08-11T17:36:24;4.05;;;1.42;;
33347;SDS011;19707;51.158;17.124;2022-08-11T17:39:26;1.85;;;1.12;;
33347;SDS011;19707;51.158;17.124;2022-08-11T17:42:31;3.52;;;1.25;;
33347;SDS011;19707;51.158;17.124;2022-08-11T17:45:51;4.70;;;1.12;;
33347;SDS011;19707;51.158;17.124;2022-08-11T17:49:14;5.10;;;1.42;;
33347;SDS011;19707;51.158;17.124;2022-08-11T17:55:37;2.05;;;1.30;;
33347;SDS011;19707;51.158;17.124;2022-08-11T17:58:58;2.40;;;1.75;;
33347;SDS011;19707;51.158;17.124;2022-08-11T18:02:20;4.15;;;1.40;;
33347;SDS011;19707;51.158;17.124;2022-08-11T18:05:54;3.87;;;1.35;;
33347;SDS011;19707;51.158;17.124;2022-08-11T18:08:56;2.92;;;1.15;;
33347;SDS011;19707;51.158;17.124;2022-08-11T18:12:17;2.22;;;1.20;;
33347;SDS011;19707;51.158;17.124;2022-08-11T18:15:37;4.55;;;1.80;;
33347;SDS011;19707;51.158;17.124;2022-08-11T18:19:00;1.60;;;1.30;;
33347;SDS011;19707;51.158;17.124;2022-08-11T18:22:21;5.03;;;1.70;;
33347;SDS011;19707;51.158;17.124;2022-08-11T18:25:44;2.50;;;1.37;;
33347;SDS011;19707;51.158;17.124;2022-08-11T18:29:06;1.55;;;1.17;;
33347;SDS011;19707;51.158;17.124;2022-08-11T18:32:27;1.75;;;1.20;;
33347;SDS011;19707;51.158;17.124;2022-08-11T18:35:51;2.62;;;1.20;;
33347;SDS011;19707;51.158;17.124;2022-08-11T18:39:17;2.08;;;0.93;;
33347;SDS011;19707;51.158;17.124;2022-08-11T18:42:39;6.95;;;1.27;;
33347;SDS011;19707;51.158;17.124;2022-08-11T18:46:01;2.58;;;1.45;;
33347;SDS011;19707;51.158;17.124;2022-08-11T18:49:28;3.62;;;1.17;;
33347;SDS011;19707;51.158;17.124;2022-08-11T18:52:52;2.00;;;1.30;;
33347;SDS011;19707;51.158;17.124;2022-08-11T18:56:13;5.15;;;1.45;;
33347;SDS011;19707;51.158;17.124;2022-08-11T18:59:35;1.98;;;1.15;;
33347;SDS011;19707;51.158;17.124;2022-08-11T19:02:58;2.77;;;1.70;;
33347;SDS011;19707;51.158;17.124;2022-08-11T19:06:19;6.78;;;3.22;;
33347;SDS011;19707;51.158;17.124;2022-08-11T19:09:42;3.67;;;2.02;;
33347;SDS011;19707;51.158;17.124;2022-08-11T19:13:05;7.08;;;1.72;;
33347;SDS011;19707;51.158;17.124;2022-08-11T19:16:26;5.75;;;2.05;;
33347;SDS011;19707;51.158;17.124;2022-08-11T19:19:47;7.58;;;1.90;;
33347;SDS011;19707;51.158;17.124;2022-08-11T19:23:08;4.15;;;1.80;;
33347;SDS011;19707;51.158;17.124;2022-08-11T19:26:30;4.20;;;1.90;;
33347;SDS011;19707;51.158;17.124;2022-08-11T19:29:51;7.10;;;2.22;;
33347;SDS011;19707;51.158;17.124;2022-08-11T19:33:12;5.95;;;2.25;;
33347;SDS011;19707;51.158;17.124;2022-08-11T19:36:32;3.65;;;2.17;;
33347;SDS011;19707;51.158;17.124;2022-08-11T19:39:54;2.42;;;1.85;;
33347;SDS011;19707;51.158;17.124;2022-08-11T19:43:18;2.02;;;1.82;;
33347;SDS011;19707;51.158;17.124;2022-08-11T19:46:38;2.90;;;1.85;;
33347;SDS011;19707;51.158;17.124;2022-08-11T19:49:58;4.05;;;2.45;;
33347;SDS011;19707;51.158;17.124;2022-08-11T19:53:18;4.95;;;2.77;;
33347;SDS011;19707;51.158;17.124;2022-08-11T19:56:38;3.52;;;2.35;;
33347;SDS011;19707;51.158;17.124;2022-08-11T19:59:59;6.78;;;2.45;;
33347;SDS011;19707;51.158;17.124;2022-08-11T20:03:25;4.35;;;2.05;;
33347;SDS011;19707;51.158;17.124;2022-08-11T20:06:45;2.37;;;2.10;;
33347;SDS011;19707;51.158;17.124;2022-08-11T20:10:05;3.12;;;2.10;;
33347;SDS011;19707;51.158;17.124;2022-08-11T20:13:27;8.18;;;1.70;;
33347;SDS011;19707;51.158;17.124;2022-08-11T20:16:48;7.50;;;1.60;;
33347;SDS011;19707;51.158;17.124;2022-08-11T20:20:12;3.75;;;1.95;;
33347;SDS011;19707;51.158;17.124;2022-08-11T20:23:33;5.92;;;1.62;;
33347;SDS011;19707;51.158;17.124;2022-08-11T20:26:56;3.72;;;2.20;;
33347;SDS011;19707;51.158;17.124;2022-08-11T20:30:16;2.50;;;2.00;;
33347;SDS011;19707;51.158;17.124;2022-08-11T20:33:35;3.05;;;1.95;;
33347;SDS011;19707;51.158;17.124;2022-08-11T20:36:56;4.25;;;2.20;;
33347;SDS011;19707;51.158;17.124;2022-08-11T20:40:18;5.60;;;2.05;;
33347;SDS011;19707;51.158;17.124;2022-08-11T20:43:39;2.40;;;2.20;;
33347;SDS011;19707;51.158;17.124;2022-08-11T20:47:00;3.10;;;2.02;;
33347;SDS011;19707;51.158;17.124;2022-08-11T20:50:22;3.60;;;1.95;;
33347;SDS011;19707;51.158;17.124;2022-08-11T20:53:43;3.75;;;1.80;;
33347;SDS011;19707;51.158;17.124;2022-08-11T20:57:03;6.92;;;2.17;;
33347;SDS011;19707;51.158;17.124;2022-08-11T21:00:25;2.85;;;1.87;;
33347;SDS011;19707;51.158;17.124;2022-08-11T21:03:45;7.12;;;2.50;;
33347;SDS011;19707;51.158;17.124;2022-08-11T21:07:05;6.17;;;1.77;;
33347;SDS011;19707;51.158;17.124;2022-08-11T21:10:27;5.00;;;2.08;;
33347;SDS011;19707;51.158;17.124;2022-08-11T21:13:49;4.53;;;1.85;;
33347;SDS011;19707;51.158;17.124;2022-08-11T21:17:09;6.10;;;2.02;;
33347;SDS011;19707;51.158;17.124;2022-08-11T21:20:29;4.85;;;2.75;;
33347;SDS011;19707;51.158;17.124;2022-08-11T21:23:50;5.45;;;2.70;;
33347;SDS011;19707;51.158;17.124;2022-08-11T21:27:11;5.60;;;2.72;;
33347;SDS011;19707;51.158;17.124;2022-08-11T21:30:34;4.67;;;2.80;;
33347;SDS011;19707;51.158;17.124;2022-08-11T21:33:54;4.87;;;2.47;;
33347;SDS011;19707;51.158;17.124;2022-08-11T21:37:14;5.85;;;2.33;;
33347;SDS011;19707;51.158;17.124;2022-08-11T21:40:36;4.85;;;3.22;;
33347;SDS011;19707;51.158;17.124;2022-08-11T21:43:59;4.75;;;3.35;;
33347;SDS011;19707;51.158;17.124;2022-08-11T21:47:20;5.85;;;3.60;;
33347;SDS011;19707;51.158;17.124;2022-08-11T21:50:41;6.03;;;3.08;;
33347;SDS011;19707;51.158;17.124;2022-08-11T21:54:01;6.55;;;2.22;;
33347;SDS011;19707;51.158;17.124;2022-08-11T21:57:22;3.67;;;2.05;;
33347;SDS011;19707;51.158;17.124;2022-08-11T22:00:42;5.90;;;2.58;;
33347;SDS011;19707;51.158;17.124;2022-08-11T22:04:04;3.75;;;2.27;;
33347;SDS011;19707;51.158;17.124;2022-08-11T22:07:24;4.28;;;2.40;;
33347;SDS011;19707;51.158;17.124;2022-08-11T22:10:44;4.47;;;2.33;;
33347;SDS011;19707;51.158;17.124;2022-08-11T22:14:04;5.65;;;2.50;;
33347;SDS011;19707;51.158;17.124;2022-08-11T22:17:24;4.97;;;2.12;;
33347;SDS011;19707;51.158;17.124;2022-08-11T22:20:44;5.75;;;2.45;;
33347;SDS011;19707;51.158;17.124;2022-08-11T22:24:04;5.03;;;2.62;;
33347;SDS011;19707;51.158;17.124;2022-08-11T22:27:24;4.00;;;2.17;;
33347;SDS011;19707;51.158;17.124;2022-08-11T22:30:44;6.50;;;3.08;;
33347;SDS011;19707;51.158;17.124;2022-08-11T22:34:04;4.85;;;2.12;;